Time;durP1;ratioP1;P1;durP2;ratioP2;P2;SDS_P1;SDS_P2;PMS_P1;PMS_P2;Temp;Humidity;BMP_temperature;BMP_pressure;BME280_temperature;BME280_humidity;BME280_pressure;Samples;Min_cycle;Max_cycle;Signal;HPM_P1;HPM_P2
2021/05/01 00:01:51;;;;;;;15.05;5.05;;;;;;;19.55;53.76;94537.91;2996211;39;20051;-85
2021/05/01 00:03:53;;;;;;;10.77;3.70;;;;;;;19.59;53.69;94527.63;2997768;39;20084;-85
2021/05/01 00:05:54;;;;;;;12.52;4.28;;;;;;;19.35;54.70;94527.44;2997541;39;20058;-83
2021/05/01 00:07:55;;;;;;;12.10;4.93;;;;;;;19.20;55.00;94529.63;2990385;39;20290;-85
2021/05/01 00:09:56;;;;;;;11.48;4.43;;;;;;;18.60;56.69;94538.75;2986546;39;20076;-85
2021/05/01 00:12:01;;;;;;;13.90;4.03;;;;;;;18.30;57.41;94529.72;2995890;39;20091;-86
2021/05/01 00:14:03;;;;;;;9.10;4.00;;;;;;;18.41;57.71;94537.00;2981321;39;20115;-85
2021/05/01 00:16:05;;;;;;;14.68;5.18;;;;;;;18.57;57.31;94539.19;2995218;39;20335;-86
2021/05/01 00:18:07;;;;;;;7.47;4.25;;;;;;;18.70;56.72;94537.50;2998070;39;20083;-83
2021/05/01 00:20:08;;;;;;;14.05;4.25;;;;;;;18.83;56.65;94534.78;3002707;39;20057;-85
2021/05/01 00:22:10;;;;;;;8.60;4.20;;;;;;;18.89;55.92;94547.19;3000781;39;20143;-84
2021/05/01 00:24:11;;;;;;;9.57;3.63;;;;;;;18.91;55.71;94534.53;3000949;39;20067;-84
2021/05/01 00:26:13;;;;;;;7.03;3.42;;;;;;;18.96;55.83;94533.88;2987242;39;20051;-83
2021/05/01 00:28:14;;;;;;;10.80;5.15;;;;;;;18.96;55.76;94536.53;2979875;39;20048;-85
2021/05/01 00:30:16;;;;;;;9.90;4.85;;;;;;;18.96;55.42;94536.53;2989527;39;20086;-84
2021/05/01 00:32:17;;;;;;;11.43;4.72;;;;;;;18.97;55.55;94538.16;2995438;39;20051;-84
2021/05/01 00:34:18;;;;;;;10.45;4.10;;;;;;;18.99;55.47;94538.75;2994050;39;20031;-83
2021/05/01 00:36:19;;;;;;;10.30;5.60;;;;;;;19.01;55.38;94542.84;2996178;39;20043;-84
2021/05/01 00:38:21;;;;;;;11.05;4.07;;;;;;;19.02;55.13;94538.34;2988304;39;20091;-84
2021/05/01 00:40:22;;;;;;;10.43;4.30;;;;;;;19.02;54.90;94533.03;2998525;39;20423;-85
2021/05/01 00:42:23;;;;;;;10.80;4.70;;;;;;;19.01;55.15;94542.00;2984167;39;20064;-85
2021/05/01 00:44:24;;;;;;;15.38;6.82;;;;;;;19.02;55.08;94525.88;2995419;39;20475;-84
2021/05/01 00:46:26;;;;;;;10.45;4.75;;;;;;;19.00;55.12;94535.06;2993741;39;20055;-85
2021/05/01 00:48:27;;;;;;;9.43;4.28;;;;;;;18.76;55.70;94540.09;2997059;39;20059;-85
2021/05/01 00:50:28;;;;;;;13.57;4.90;;;;;;;18.68;55.61;94536.88;2985830;39;20056;-84
2021/05/01 00:52:31;;;;;;;7.22;4.10;;;;;;;18.48;56.39;94544.97;2978154;39;20139;-84
2021/05/01 00:54:32;;;;;;;10.95;4.10;;;;;;;18.51;56.30;94544.53;2982639;39;20053;-84
2021/05/01 00:56:34;;;;;;;10.45;4.75;;;;;;;18.29;56.98;94541.38;2995831;39;20074;-83
2021/05/01 00:58:35;;;;;;;12.57;5.38;;;;;;;18.11;57.39;94540.22;2991646;39;20051;-83
2021/05/01 01:00:49;;;;;;;10.18;3.60;;;;;;;18.16;57.21;94542.22;2978074;39;20071;-85
2021/05/01 01:02:51;;;;;;;10.57;3.67;;;;;;;18.30;57.13;94538.47;2991412;39;20065;-84
2021/05/01 01:04:53;;;;;;;11.93;4.35;;;;;;;18.28;56.90;94527.28;2998515;39;20043;-86
2021/05/01 01:06:54;;;;;;;9.55;3.85;;;;;;;18.18;57.18;94527.75;2989970;39;20077;-85
2021/05/01 01:08:56;;;;;;;10.20;4.53;;;;;;;18.29;57.06;94533.41;2999772;39;20323;-85
2021/05/01 01:10:58;;;;;;;7.57;3.78;;;;;;;18.31;57.18;94526.06;3004885;39;20082;-84
2021/05/01 01:12:59;;;;;;;14.52;4.35;;;;;;;17.85;58.65;94519.88;3000448;39;20059;-84
2021/05/01 01:15:00;;;;;;;12.35;4.35;;;;;;;17.90;58.32;94528.03;2988409;39;20024;-84
2021/05/01 01:17:02;;;;;;;11.27;4.03;;;;;;;18.03;58.44;94524.53;2995778;39;20466;-83
2021/05/01 01:19:04;;;;;;;7.00;3.83;;;;;;;18.16;57.64;94528.97;2999055;39;20047;-85
2021/05/01 01:21:06;;;;;;;9.02;4.15;;;;;;;18.27;57.72;94525.66;2997626;39;20063;-85
2021/05/01 01:23:07;;;;;;;8.80;4.00;;;;;;;18.34;57.41;94521.13;2977871;40;20117;-85
2021/05/01 01:25:09;;;;;;;8.88;3.60;;;;;;;18.40;57.22;94516.81;2988582;39;20536;-84
2021/05/01 01:27:10;;;;;;;11.85;3.90;;;;;;;18.50;56.39;94516.34;2999140;39;20459;-85
2021/05/01 01:29:14;;;;;;;10.47;4.33;;;;;;;18.52;56.96;94509.84;2993876;39;20051;-84
2021/05/01 01:31:46;;;;;;;12.52;4.10;;;;;;;18.56;56.44;94511.03;2996126;39;20143;-83
2021/05/01 01:33:48;;;;;;;8.73;4.30;;;;;;;18.58;56.36;94516.09;2993744;39;20051;-86
2021/05/01 01:35:49;;;;;;;9.48;4.10;;;;;;;18.65;56.14;94516.91;2979301;39;20128;-84
2021/05/01 01:37:51;;;;;;;11.65;4.05;;;;;;;18.61;56.17;94521.81;2986886;39;20409;-85
2021/05/01 01:39:52;;;;;;;9.02;3.55;;;;;;;18.66;55.79;94513.22;2995582;39;20059;-83
2021/05/01 01:41:53;;;;;;;8.77;3.67;;;;;;;18.66;55.34;94513.22;2998909;39;20063;-86
2021/05/01 01:43:54;;;;;;;9.30;3.60;;;;;;;18.67;55.45;94512.19;2985996;39;20361;-83
2021/05/01 01:45:56;;;;;;;10.05;3.58;;;;;;;18.75;55.34;94508.47;2988068;39;20460;-84
2021/05/01 01:47:57;;;;;;;10.27;4.13;;;;;;;18.72;55.31;94506.25;2996311;39;20051;-87
2021/05/01 01:49:58;;;;;;;7.60;4.13;;;;;;;18.73;55.39;94508.66;2994750;39;20047;-86
2021/05/01 01:51:59;;;;;;;8.65;4.00;;;;;;;18.71;55.25;94508.06;2999120;39;20054;-84
2021/05/01 01:54:01;;;;;;;11.35;4.65;;;;;;;18.72;55.16;94499.09;3000240;39;20350;-85
2021/05/01 01:56:02;;;;;;;10.50;4.25;;;;;;;18.72;55.61;94503.59;2998918;39;20058;-85
2021/05/01 01:58:04;;;;;;;8.77;3.22;;;;;;;18.42;56.24;94512.94;3000432;39;20086;-84
2021/05/01 02:00:08;;;;;;;13.93;4.03;;;;;;;18.32;56.76;94511.75;2995854;39;20167;-85
2021/05/01 02:02:10;;;;;;;8.70;4.05;;;;;;;18.32;56.60;94512.56;2989368;39;20062;-86
2021/05/01 02:04:12;;;;;;;13.15;4.25;;;;;;;18.26;56.85;94508.09;2989203;39;20044;-86
2021/05/01 02:06:13;;;;;;;9.60;4.05;;;;;;;18.12;57.14;94507.38;2995617;39;20055;-83
2021/05/01 02:08:15;;;;;;;10.02;5.78;;;;;;;18.17;57.01;94512.84;2986415;39;20409;-85
2021/05/01 02:10:17;;;;;;;11.10;3.65;;;;;;;18.24;56.85;94515.50;3003947;39;20142;-85
2021/05/01 02:12:19;;;;;;;6.63;3.70;;;;;;;18.30;56.40;94519.91;2984369;39;20083;-83
2021/05/01 02:14:20;;;;;;;9.85;4.00;;;;;;;18.36;56.48;94528.88;2979729;39;20079;-87
2021/05/01 02:16:21;;;;;;;8.77;4.10;;;;;;;18.41;56.24;94532.53;2987883;39;20180;-82
2021/05/01 02:18:22;;;;;;;9.35;3.38;;;;;;;18.43;56.31;94537.59;2991717;39;20115;-84
2021/05/01 02:20:35;;;;;;;7.22;4.15;;;;;;;18.47;56.15;94541.47;2993132;39;20131;-84
2021/05/01 02:22:36;;;;;;;7.45;3.80;;;;;;;18.45;56.01;94542.72;2987134;39;20061;-86
2021/05/01 02:24:38;;;;;;;12.20;4.35;;;;;;;18.45;56.15;94537.41;2991482;39;20404;-84
2021/05/01 02:26:39;;;;;;;11.13;3.78;;;;;;;18.46;56.34;94531.09;3000148;39;20427;-84
2021/05/01 02:28:40;;;;;;;7.07;3.70;;;;;;;18.48;55.87;94531.69;2990520;39;20375;-84
2021/05/01 02:30:41;;;;;;;9.02;3.55;;;;;;;18.45;55.92;94530.25;2987510;39;20059;-83
2021/05/01 02:32:43;;;;;;;12.18;4.40;;;;;;;18.42;56.22;94520.88;2995872;39;20078;-84
2021/05/01 02:34:44;;;;;;;15.65;4.38;;;;;;;18.40;56.61;94524.78;2995496;39;20068;-85
2021/05/01 02:36:45;;;;;;;7.88;3.80;;;;;;;18.40;56.92;94516.81;2986008;39;20055;-84
2021/05/01 02:38:46;;;;;;;6.80;3.58;;;;;;;18.39;56.46;94513.38;2985880;39;20075;-85
2021/05/01 02:40:48;;;;;;;7.50;4.30;;;;;;;18.38;56.66;94518.88;2979803;39;20047;-85
2021/05/01 02:42:50;;;;;;;8.30;3.88;;;;;;;18.36;56.77;94518.28;2995808;39;20062;-83
2021/05/01 02:44:51;;;;;;;11.73;3.63;;;;;;;18.36;56.77;94515.63;2985701;39;20080;-85
2021/05/01 02:46:52;;;;;;;10.55;4.07;;;;;;;18.30;57.11;94519.91;2985582;39;20058;-83
2021/05/01 02:48:53;;;;;;;11.20;4.18;;;;;;;18.20;57.15;94520.38;2982668;39;20075;-84
2021/05/01 02:50:55;;;;;;;10.82;3.67;;;;;;;17.91;57.45;94519.06;2998714;39;20027;-84
2021/05/01 02:52:56;;;;;;;11.02;4.13;;;;;;;17.73;58.08;94522.34;2996801;39;20055;-85
2021/05/01 02:54:58;;;;;;;14.15;4.78;;;;;;;17.68;58.38;94522.16;2969942;39;20269;-85
2021/05/01 02:56:59;;;;;;;7.45;4.22;;;;;;;17.77;58.40;94525.41;2981220;39;20052;-84
2021/05/01 02:59:00;;;;;;;10.07;4.22;;;;;;;17.77;58.06;94522.75;2996157;39;20086;-85
2021/05/01 03:01:02;;;;;;;10.43;3.95;;;;;;;17.67;58.35;94527.66;2996458;39;20047;-87
2021/05/01 03:03:03;;;;;;;10.70;3.90;;;;;;;17.72;58.24;94526.00;2991053;39;20084;-83
2021/05/01 03:05:05;;;;;;;11.13;4.38;;;;;;;17.78;58.83;94527.81;3005833;39;20057;-85
2021/05/01 03:07:07;;;;;;;9.80;3.95;;;;;;;17.81;58.62;94519.47;2996709;39;20087;-85
2021/05/01 03:09:09;;;;;;;11.63;4.35;;;;;;;17.89;58.12;94531.69;2997860;39;20048;-86
2021/05/01 03:11:10;;;;;;;6.57;3.65;;;;;;;17.91;57.95;94534.94;3005301;39;20051;-85
2021/05/01 03:13:12;;;;;;;10.32;4.55;;;;;;;17.96;57.76;94536.97;3010604;39;20075;-85
2021/05/01 03:15:14;;;;;;;10.73;4.32;;;;;;;17.93;57.40;94535.56;3009938;39;20055;-85
2021/05/01 03:17:15;;;;;;;9.85;3.70;;;;;;;17.98;57.35;94533.13;2995566;39;20056;-85
2021/05/01 03:19:18;;;;;;;13.77;4.30;;;;;;;17.98;57.46;94527.81;2992792;39;20427;-85
2021/05/01 03:21:20;;;;;;;8.80;3.75;;;;;;;18.00;57.71;94531.06;3001046;39;20054;-73
2021/05/01 03:23:21;;;;;;;9.93;3.70;;;;;;;18.00;57.43;94532.88;2983803;39;20058;-74
2021/05/01 03:25:22;;;;;;;12.23;4.25;;;;;;;18.00;57.19;94541.69;2992912;39;20087;-73
2021/05/01 03:27:23;;;;;;;9.60;3.75;;;;;;;18.00;57.42;94541.69;2983922;39;20052;-73
2021/05/01 03:29:25;;;;;;;5.95;3.85;;;;;;;17.97;58.00;94541.25;2984154;39;20133;-73
2021/05/01 03:31:26;;;;;;;14.15;3.90;;;;;;;18.00;57.71;94546.97;2998377;39;20046;-73
2021/05/01 03:33:28;;;;;;;11.93;4.03;;;;;;;17.99;57.64;94545.34;2984654;39;20087;-72
2021/05/01 03:35:29;;;;;;;6.82;3.97;;;;;;;18.03;57.43;94542.28;2994068;39;20489;-73
2021/05/01 03:37:31;;;;;;;12.43;4.00;;;;;;;18.04;57.46;94541.25;2983962;39;20516;-72
2021/05/01 03:39:32;;;;;;;8.57;4.75;;;;;;;18.03;57.88;94550.22;2975768;39;20084;-73
2021/05/01 03:41:34;;;;;;;9.55;4.20;;;;;;;17.97;58.12;94547.38;2990100;39;20451;-73
2021/05/01 03:43:35;;;;;;;13.77;4.97;;;;;;;17.96;57.98;94548.41;2993744;39;20297;-73
2021/05/01 03:45:36;;;;;;;12.43;5.53;;;;;;;17.98;57.62;94550.84;2994825;39;20051;-72
2021/05/01 03:47:38;;;;;;;9.90;4.15;;;;;;;17.96;57.86;94545.75;2995872;39;20073;-73
2021/05/01 03:49:39;;;;;;;10.93;5.35;;;;;;;17.99;58.46;94547.97;2983593;39;20040;-72
2021/05/01 03:51:40;;;;;;;10.23;4.55;;;;;;;18.03;58.40;94542.28;2993499;39;20102;-71
2021/05/01 03:53:42;;;;;;;15.02;4.47;;;;;;;18.05;58.26;94540.22;2993982;39;20055;-72
2021/05/01 03:55:43;;;;;;;10.35;4.60;;;;;;;18.04;58.06;94550.00;2983076;39;20059;-74
2021/05/01 03:57:44;;;;;;;11.63;4.55;;;;;;;18.03;58.36;94535.13;2990026;39;20059;-71
2021/05/01 03:59:45;;;;;;;8.95;4.78;;;;;;;17.88;59.32;94542.53;2990419;39;20055;-72
2021/05/01 04:01:47;;;;;;;8.75;4.22;;;;;;;17.83;59.31;94548.41;2997164;39;20051;-73
2021/05/01 04:03:48;;;;;;;7.70;4.53;;;;;;;17.84;59.50;94546.59;2997271;39;20047;-72
2021/05/01 04:05:49;;;;;;;9.68;4.60;;;;;;;17.87;59.38;94549.63;2987944;39;20462;-73
2021/05/01 04:07:50;;;;;;;8.43;4.63;;;;;;;17.86;59.53;94549.88;2982524;39;20055;-72
2021/05/01 04:09:52;;;;;;;13.75;4.68;;;;;;;17.80;59.46;94556.75;2986096;39;20057;-73
2021/05/01 04:11:53;;;;;;;11.35;4.95;;;;;;;17.79;59.60;94565.75;2996379;39;20428;-73
2021/05/01 04:13:54;;;;;;;7.85;4.63;;;;;;;17.78;59.64;94558.81;2988081;39;20052;-72
2021/05/01 04:15:56;;;;;;;10.70;4.70;;;;;;;17.34;61.26;94561.09;2975994;39;20149;-72
2021/05/01 04:17:57;;;;;;;9.88;4.80;;;;;;;17.39;61.08;94565.78;2982292;39;20053;-72
2021/05/01 04:19:58;;;;;;;8.60;4.68;;;;;;;17.33;61.52;94550.72;2992717;39;20059;-72
2021/05/01 04:22:04;;;;;;;11.93;5.10;;;;;;;17.40;61.22;94559.44;2993931;39;20058;-74
2021/05/01 04:24:06;;;;;;;9.38;4.68;;;;;;;17.51;60.81;94565.97;2983970;39;20083;-72
2021/05/01 04:26:08;;;;;;;10.15;4.75;;;;;;;17.63;60.28;94566.16;2993231;39;20133;-72
2021/05/01 04:28:09;;;;;;;11.35;5.55;;;;;;;17.80;59.60;94554.91;2977203;39;20044;-73
2021/05/01 04:30:12;;;;;;;11.73;4.78;;;;;;;18.00;59.00;94554.94;2983667;39;20055;-72
2021/05/01 04:32:13;;;;;;;12.68;4.95;;;;;;;18.15;58.50;94553.84;2993663;39;20073;-73
2021/05/01 04:34:15;;;;;;;11.13;4.47;;;;;;;18.29;58.28;94557.28;2984962;39;20116;-73
2021/05/01 04:36:17;;;;;;;14.18;5.25;;;;;;;18.35;58.13;94554.59;2981669;39;20432;-72
2021/05/01 04:38:19;;;;;;;12.05;4.75;;;;;;;18.42;57.41;94550.06;2989838;39;20478;-73
2021/05/01 04:40:20;;;;;;;15.18;4.63;;;;;;;18.39;58.03;94547.84;2982477;39;20088;-72
2021/05/01 04:42:21;;;;;;;10.50;4.32;;;;;;;18.42;57.79;94560.66;2987333;39;20332;-72
2021/05/01 04:44:23;;;;;;;8.63;4.55;;;;;;;18.47;57.41;94553.94;2984178;39;20047;-72
2021/05/01 04:46:24;;;;;;;13.77;4.75;;;;;;;18.30;57.38;94557.03;2983723;39;20067;-72
2021/05/01 04:48:28;;;;;;;11.65;4.75;;;;;;;18.36;57.49;94564.16;2992791;39;20043;-73
2021/05/01 04:50:30;;;;;;;10.32;4.90;;;;;;;18.41;57.95;94556.41;2989027;39;20493;-84
2021/05/01 04:52:31;;;;;;;9.88;5.35;;;;;;;18.53;57.21;94569.00;3005463;39;20047;-85
2021/05/01 04:54:32;;;;;;;11.23;4.78;;;;;;;18.60;57.52;94551.19;2999518;39;20058;-83
2021/05/01 04:56:34;;;;;;;15.60;4.80;;;;;;;18.41;57.12;94564.38;2996423;39;20039;-85
2021/05/01 04:58:35;;;;;;;10.57;3.70;;;;;;;18.48;56.95;94571.47;2997929;39;20074;-83
2021/05/01 05:00:36;;;;;;;10.57;4.57;;;;;;;18.49;57.11;94565.13;3004765;39;20414;-86
2021/05/01 05:02:38;;;;;;;10.27;5.10;;;;;;;18.58;56.88;94566.50;2988384;39;20087;-83
2021/05/01 05:04:40;;;;;;;11.13;4.50;;;;;;;18.60;56.93;94569.78;2993727;39;20031;-86
2021/05/01 05:06:41;;;;;;;8.00;4.60;;;;;;;18.66;56.49;94573.44;2986579;39;20079;-85
2021/05/01 05:08:42;;;;;;;7.32;3.63;;;;;;;18.69;55.82;94565.03;2990491;39;20051;-86
2021/05/01 05:10:43;;;;;;;9.90;4.63;;;;;;;18.48;56.47;94564.34;2991432;39;20414;-86
2021/05/01 05:12:46;;;;;;;11.65;5.32;;;;;;;18.58;56.14;94577.13;2987494;39;20063;-85
2021/05/01 05:14:48;;;;;;;12.82;4.75;;;;;;;18.60;56.12;94580.38;2988363;39;20097;-85
2021/05/01 05:16:49;;;;;;;7.15;3.47;;;;;;;18.79;55.83;94581.34;2991751;39;20047;-86
2021/05/01 05:18:51;;;;;;;9.88;3.90;;;;;;;18.93;55.36;94574.94;2997921;39;20055;-84
2021/05/01 05:20:52;;;;;;;12.25;4.20;;;;;;;19.02;54.95;94581.63;2986987;39;20052;-85
2021/05/01 05:22:53;;;;;;;9.30;4.00;;;;;;;19.18;54.76;94568.84;3002522;39;20071;-87
2021/05/01 05:24:54;;;;;;;13.93;5.10;;;;;;;19.18;54.60;94574.97;2997142;39;20046;-86
2021/05/01 05:26:55;;;;;;;8.77;4.40;;;;;;;19.28;54.55;94573.69;2978447;39;20127;-85
2021/05/01 05:28:57;;;;;;;9.48;4.18;;;;;;;19.39;54.28;94572.97;2997398;39;20043;-85
2021/05/01 05:30:58;;;;;;;13.70;4.38;;;;;;;19.50;54.12;94572.28;2982985;39;20114;-86
2021/05/01 05:33:00;;;;;;;8.88;3.90;;;;;;;19.61;53.88;94576.88;2984190;39;20427;-85
2021/05/01 05:35:02;;;;;;;9.95;4.03;;;;;;;19.69;53.62;94575.78;2986922;39;20051;-85
2021/05/01 05:37:03;;;;;;;8.88;4.25;;;;;;;19.78;53.41;94571.84;2983762;39;20079;-86
2021/05/01 05:39:05;;;;;;;12.48;4.20;;;;;;;19.83;53.03;94566.69;2978183;39;20116;-85
2021/05/01 05:41:07;;;;;;;13.45;4.78;;;;;;;19.90;52.83;94587.09;2981236;39;20071;-84
2021/05/01 05:43:10;;;;;;;11.40;4.22;;;;;;;19.91;52.61;94583.38;2986404;39;20083;-85
2021/05/01 05:45:13;;;;;;;8.50;3.78;;;;;;;19.93;52.61;94582.13;2999406;39;20043;-85
2021/05/01 05:47:15;;;;;;;9.68;4.00;;;;;;;19.78;52.61;94584.31;2977684;39;20344;-87
2021/05/01 05:49:17;;;;;;;12.23;3.80;;;;;;;19.68;52.48;94590.13;2978051;39;20144;-86
2021/05/01 05:51:18;;;;;;;10.35;3.83;;;;;;;19.75;52.66;94590.91;2986487;39;20129;-86
2021/05/01 05:53:21;;;;;;;12.43;4.40;;;;;;;19.88;52.53;94591.81;2990462;39;20055;-88
2021/05/01 05:55:22;;;;;;;9.57;4.03;;;;;;;20.03;52.07;94589.63;2995851;39;20053;-86
2021/05/01 05:57:24;;;;;;;16.38;5.75;;;;;;;20.14;51.50;94585.41;2981487;39;20048;-84
2021/05/01 05:59:25;;;;;;;9.05;3.65;;;;;;;20.11;51.76;94591.16;2995614;39;20051;-85
2021/05/01 06:01:26;;;;;;;10.23;4.15;;;;;;;19.96;51.58;94573.72;2986054;39;20507;-86
2021/05/01 06:03:28;;;;;;;9.80;3.78;;;;;;;19.59;52.52;94576.28;2986729;39;20120;-87
2021/05/01 06:05:34;;;;;;;10.40;3.90;;;;;;;19.77;52.29;94590.69;3001965;39;20031;-83
2021/05/01 06:07:40;;;;;;;8.50;3.78;;;;;;;19.53;52.78;94589.63;2997568;39;20067;-86
2021/05/01 06:09:41;;;;;;;8.35;4.45;;;;;;;19.60;52.63;94580.56;2996281;39;20062;-85
2021/05/01 06:11:42;;;;;;;8.43;4.10;;;;;;;19.71;52.32;94596.88;2986292;39;20451;-85
2021/05/01 06:13:46;;;;;;;10.60;3.90;;;;;;;19.77;52.33;94588.84;2986332;39;20063;-85
2021/05/01 06:15:47;;;;;;;9.52;3.92;;;;;;;19.91;52.02;94591.38;2986472;39;20070;-86
2021/05/01 06:17:52;;;;;;;7.93;3.83;;;;;;;20.02;51.64;94588.78;2977495;40;20083;-85
2021/05/01 06:19:55;;;;;;;10.70;5.03;;;;;;;20.11;51.53;94577.84;2993050;39;20051;-86
2021/05/01 06:21:56;;;;;;;8.35;3.88;;;;;;;20.39;50.86;94570.19;2996729;39;20082;-85
2021/05/01 06:23:57;;;;;;;7.55;3.90;;;;;;;20.49;50.35;94577.63;2988789;39;20040;-84
2021/05/01 06:26:02;;;;;;;11.00;3.95;;;;;;;20.54;50.65;94568.97;3001610;39;20120;-83
2021/05/01 06:28:05;;;;;;;8.85;3.65;;;;;;;20.53;50.35;94562.03;2997440;39;20073;-85
2021/05/01 06:30:11;;;;;;;6.45;3.78;;;;;;;20.63;49.77;94559.69;2998235;39;20039;-87
2021/05/01 06:32:14;;;;;;;12.30;4.22;;;;;;;20.82;49.42;94558.63;2996101;39;20392;-84
2021/05/01 06:34:15;;;;;;;10.38;4.07;;;;;;;21.03;48.97;94549.28;2995530;39;20438;-85
2021/05/01 06:36:17;;;;;;;11.85;4.03;;;;;;;21.12;48.82;94544.44;2995200;39;20083;-83
2021/05/01 06:38:18;;;;;;;12.60;4.25;;;;;;;21.30;48.81;94548.88;2990242;39;20043;-85
2021/05/01 06:40:24;;;;;;;8.75;4.00;;;;;;;21.43;48.64;94547.91;2989477;39;20088;-86
2021/05/01 06:42:26;;;;;;;10.98;4.63;;;;;;;21.64;47.56;94550.00;2997823;39;20075;-86
2021/05/01 06:44:40;;;;;;;15.88;4.95;;;;;;;21.58;46.96;94552.78;3000475;39;20415;-86
2021/05/01 06:46:47;;;;;;;13.15;4.18;;;;;;;21.12;47.81;94556.94;2977538;39;20344;-83
2021/05/01 06:48:54;;;;;;;9.68;4.07;;;;;;;21.08;47.92;94564.59;2994937;39;20035;-84
2021/05/01 06:50:59;;;;;;;9.55;4.13;;;;;;;20.80;47.95;94559.84;2977806;39;20044;-85
2021/05/01 06:53:01;;;;;;;10.05;3.38;;;;;;;20.78;47.93;94568.09;2986376;39;20067;-86
2021/05/01 06:55:03;;;;;;;7.60;4.32;;;;;;;20.97;48.00;94584.00;2981812;39;20067;-73
2021/05/01 06:57:05;;;;;;;6.55;3.20;;;;;;;21.10;46.91;94586.50;2990740;39;20055;-73
2021/05/01 06:59:08;;;;;;;6.55;3.47;;;;;;;21.20;46.98;94589.41;2984785;39;20055;-74
2021/05/01 07:01:11;;;;;;;9.07;3.40;;;;;;;21.37;46.59;94588.75;2984397;39;20412;-74
2021/05/01 07:03:13;;;;;;;12.40;3.90;;;;;;;21.52;46.50;94605.16;3000083;39;20058;-73
2021/05/01 07:05:19;;;;;;;9.38;3.95;;;;;;;21.31;46.96;94613.63;2981103;39;20088;-73
2021/05/01 07:07:22;;;;;;;9.40;4.20;;;;;;;21.21;47.08;94615.00;2975880;39;20059;-73
2021/05/01 07:09:23;;;;;;;8.13;3.63;;;;;;;21.19;47.62;94616.28;2992364;39;20055;-73
2021/05/01 07:11:24;;;;;;;10.23;3.63;;;;;;;21.02;48.07;94632.88;2978712;39;20439;-74
2021/05/01 07:13:26;;;;;;;12.25;4.28;;;;;;;21.07;48.20;94642.88;2984185;39;20252;-73
2021/05/01 07:15:27;;;;;;;6.47;3.45;;;;;;;20.78;49.05;94641.78;2970922;39;20055;-74
2021/05/01 07:17:29;;;;;;;7.38;3.45;;;;;;;20.43;49.39;94645.88;2981132;39;20043;-73
2021/05/01 07:19:32;;;;;;;8.70;3.70;;;;;;;20.50;49.87;94634.31;2979125;39;20052;-74
2021/05/01 07:21:33;;;;;;;12.15;4.53;;;;;;;20.72;49.43;94635.53;2982722;39;20068;-73
2021/05/01 07:23:35;;;;;;;8.73;4.35;;;;;;;20.69;49.85;94637.81;2992117;39;20137;-72
2021/05/01 07:25:36;;;;;;;11.52;4.03;;;;;;;21.14;49.04;94642.78;2985033;39;20424;-73
2021/05/01 07:28:03;;;;;;;10.15;4.80;;;;;;;21.39;48.79;94630.13;2989957;39;20100;-74
2021/05/01 07:30:05;;;;;;;15.63;5.40;;;;;;;21.64;47.01;94624.66;2993636;39;20053;-73
2021/05/01 07:32:09;;;;;;;10.70;4.18;;;;;;;21.56;46.17;94643.63;2993892;39;20062;-73
2021/05/01 07:34:20;;;;;;;11.32;4.13;;;;;;;21.27;46.70;94634.59;2993499;39;20047;-73
2021/05/01 07:36:28;;;;;;;8.00;3.47;;;;;;;21.69;46.53;94629.28;2993741;39;20150;-74
2021/05/01 07:38:30;;;;;;;12.18;3.78;;;;;;;21.96;45.57;94640.34;2979767;39;20052;-73
2021/05/01 07:40:31;;;;;;;8.02;3.88;;;;;;;21.85;45.67;94633.13;2975341;39;20078;-73
2021/05/01 07:42:38;;;;;;;12.57;3.83;;;;;;;21.75;44.97;94636.38;2992323;39;20057;-72
2021/05/01 07:44:40;;;;;;;8.27;3.10;;;;;;;21.73;45.15;94634.97;2984148;39;20048;-74
2021/05/01 07:46:44;;;;;;;11.82;4.13;;;;;;;21.89;45.28;94628.94;2981116;39;20096;-74
2021/05/01 07:48:47;;;;;;;11.07;3.45;;;;;;;22.03;45.05;94638.34;2979967;39;20066;-74
2021/05/01 07:50:49;;;;;;;15.13;3.88;;;;;;;22.06;44.40;94637.06;2982590;39;20487;-74
2021/05/01 07:52:53;;;;;;;12.02;4.07;;;;;;;22.06;44.81;94643.22;2991348;39;20058;-73
2021/05/01 07:54:54;;;;;;;7.20;3.33;;;;;;;22.27;44.10;94635.72;2991984;39;20079;-73
2021/05/01 07:56:56;;;;;;;8.45;3.30;;;;;;;22.53;43.97;94642.41;2990861;39;20091;-72
2021/05/01 07:59:00;;;;;;;14.45;3.20;;;;;;;22.79;43.69;94645.59;2992462;39;20079;-74
2021/05/01 08:01:01;;;;;;;8.73;3.40;;;;;;;22.78;43.35;94649.31;2982882;39;20055;-72
2021/05/01 08:03:06;;;;;;;10.35;3.72;;;;;;;22.56;43.48;94641.91;2977696;39;20048;-72
2021/05/01 08:05:09;;;;;;;7.30;3.92;;;;;;;22.60;43.53;94645.75;2983536;39;20042;-73
2021/05/01 08:07:11;;;;;;;10.65;4.75;;;;;;;22.63;43.95;94636.47;2975758;39;20456;-74
2021/05/01 08:09:14;;;;;;;9.70;3.17;;;;;;;22.89;43.75;94643.94;2984029;39;20036;-73
2021/05/01 08:11:16;;;;;;;7.97;3.08;;;;;;;23.19;43.01;94639.44;2992649;39;20055;-73
2021/05/01 08:13:17;;;;;;;8.88;3.65;;;;;;;23.36;42.50;94634.13;2993481;39;20452;-73
2021/05/01 08:15:18;;;;;;;6.97;2.85;;;;;;;23.56;41.53;94631.03;2993572;39;20131;-73
2021/05/01 08:17:19;;;;;;;6.97;3.00;;;;;;;23.73;41.16;94629.19;2984214;39;20431;-72
2021/05/01 08:19:21;;;;;;;17.25;3.40;;;;;;;23.74;40.57;94635.31;2993369;39;20054;-73
2021/05/01 08:21:22;;;;;;;16.30;3.65;;;;;;;23.36;40.71;94626.13;2977008;39;20144;-73
2021/05/01 08:23:23;;;;;;;8.80;3.15;;;;;;;23.37;41.56;94617.88;2983541;39;20517;-75
2021/05/01 08:25:25;;;;;;;8.98;3.40;;;;;;;23.62;41.29;94624.72;2983384;39;20628;-73
2021/05/01 08:27:27;;;;;;;9.40;3.50;;;;;;;23.87;40.90;94619.78;2997032;39;20079;-73
2021/05/01 08:29:28;;;;;;;9.18;4.13;;;;;;;24.05;41.24;94620.63;2991579;39;20047;-72
2021/05/01 08:31:30;;;;;;;7.88;3.13;;;;;;;24.00;40.23;94631.22;2991495;39;20135;-73
2021/05/01 08:33:32;;;;;;;6.72;3.40;;;;;;;23.70;40.17;94624.28;2990862;39;20055;-73
2021/05/01 08:35:33;;;;;;;11.50;3.80;;;;;;;23.55;41.11;94622.19;2984264;39;20309;-73
2021/05/01 08:37:35;;;;;;;9.13;3.22;;;;;;;23.76;40.51;94610.00;2993173;39;20428;-74
2021/05/01 08:39:37;;;;;;;7.90;3.28;;;;;;;24.01;40.73;94609.56;2991252;39;20135;-73
2021/05/01 08:41:39;;;;;;;9.80;3.25;;;;;;;24.25;39.89;94609.38;2980143;39;20047;-72
2021/05/01 08:43:40;;;;;;;12.98;3.85;;;;;;;24.34;39.33;94607.88;2992884;39;20420;-74
2021/05/01 08:45:45;;;;;;;8.80;3.30;;;;;;;24.47;38.95;94604.84;2993233;39;20389;-71
2021/05/01 08:47:47;;;;;;;7.22;3.40;;;;;;;24.57;38.63;94604.22;2980610;39;20407;-73
2021/05/01 08:49:53;;;;;;;8.02;3.47;;;;;;;24.70;38.20;94603.03;2980923;39;21274;-74
2021/05/01 08:51:56;;;;;;;9.05;3.45;;;;;;;24.39;38.79;94601.78;2993443;39;20089;-75
2021/05/01 08:53:57;;;;;;;17.13;4.80;;;;;;;24.39;38.80;94599.91;2983405;39;20073;-73
2021/05/01 08:55:59;;;;;;;9.20;2.85;;;;;;;24.57;39.23;94595.38;2992810;39;20043;-74
2021/05/01 08:58:02;;;;;;;8.00;3.15;;;;;;;24.66;38.27;94585.84;2993065;39;20047;-73
2021/05/01 09:00:04;;;;;;;8.55;3.90;;;;;;;24.50;38.07;94590.19;2989963;39;20085;-75
2021/05/01 09:02:05;;;;;;;13.43;3.30;;;;;;;24.21;38.52;94578.81;2992943;39;20388;-72
2021/05/01 09:04:09;;;;;;;8.68;3.33;;;;;;;24.27;38.34;94567.13;2982923;39;20094;-73
2021/05/01 09:06:10;;;;;;;10.77;3.53;;;;;;;24.33;38.86;94566.13;2990300;39;20062;-73
2021/05/01 09:08:13;;;;;;;11.63;3.05;;;;;;;24.35;38.12;94566.69;2993452;39;20094;-72
2021/05/01 09:10:14;;;;;;;10.93;3.30;;;;;;;24.32;38.37;94564.50;2982296;39;20582;-73
2021/05/01 09:12:15;;;;;;;10.73;3.53;;;;;;;24.37;38.22;94569.94;2993095;39;20063;-75
2021/05/01 09:14:29;;;;;;;11.93;4.00;;;;;;;24.53;38.60;94563.72;2983332;39;20059;-74
2021/05/01 09:16:31;;;;;;;8.32;3.67;;;;;;;24.68;38.56;94564.97;2987687;39;20067;-73
2021/05/01 09:18:52;;;;;;;7.93;2.83;;;;;;;24.80;37.67;94567.50;2992562;39;20503;-74
2021/05/01 09:20:54;;;;;;;9.48;3.30;;;;;;;24.88;37.74;94575.91;2983210;39;20049;-73
2021/05/01 09:22:55;;;;;;;9.52;3.40;;;;;;;24.98;38.11;94569.06;2992886;39;20043;-73
2021/05/01 09:25:07;;;;;;;7.75;3.08;;;;;;;25.04;37.98;94574.22;2987674;39;20039;-74
2021/05/01 09:27:24;;;;;;;8.20;2.88;;;;;;;25.16;37.64;94579.41;2979857;39;20128;-74
2021/05/01 09:29:33;;;;;;;7.72;3.00;;;;;;;25.25;37.66;94577.94;2983878;39;20601;-73
2021/05/01 09:31:39;;;;;;;10.25;3.20;;;;;;;25.35;37.69;94574.53;2983386;39;20144;-74
2021/05/01 09:33:59;;;;;;;9.25;3.00;;;;;;;25.46;37.83;94564.69;2992986;39;20586;-72